Details From LEMG - Malaga
To LEAM - Almeria
Flight Number -
Tags decoded
Created
Modified
Stats Distance 106 nm / 197 km
Max Altitude 0 ft / 0 m
Waypoints 4
Social Downloads 5
Likes 0
Share

Download

Looking for another format? Having issues loading an existing format? Contact us
Advertisement - Login to hide

Notes

Requested: LEMG MGA ADRAS LEAM

Route

LEMG MGA ADRAS LEAM

ID Type Via Altitude (ft/m) Position (lat/lon) Dist (leg/tot) Name
O LEMG APT - 0 / 0 36.67978 / -4.49590 - / 0 nm Malaga
MGA VOR - 0 / 0 36.81431 / -4.36952 10 / 10 nm MALAGA VOR-DME
ADRAS FIX - 0 / 0 36.83216 / -2.72753 78 / 89 nm
O LEAM APT - 0 / 0 36.84393 / -2.37010 17 / 106 nm Almeria

Altitude Profile

Advertisement - Login to hide

LEMG

Details ICAO LEMG (AGP)
Name Málaga-Costa del Sol
Region Spain
Timezone Europe/Madrid (UTC+2.0)
Stats Elevation 52 ft / 16 m (AMSL)
Location 36.680200° -4.496650°
Runways 2
Magnetic Variation 0.469° W

METAR

LEMG 240330Z 30007KT 250V330 CAVOK 25/16 Q1008 NOSIG

Decode

TAF

TAF LEMG 232300Z 2400/2424 30009KT CAVOK TX44/2415Z TN19/2401Z

Decode

Departure Runways

ID Width Length Bearing (true/mag) Surface Threshold Overrun Markings Lighting
12 148 ft / 45 m 9,020 ft / 2,749 m 117.69° / 118.16° ASPHALT 0 ft / 0 m 0 ft / 0 m PREC-APP CENTERLINE EDGE THRESHOLD ALSF-I TDZ REIL-OMNI
13 148 ft / 45 m 10,498 ft / 3,200 m 131.69° / 132.16° ASPHALT 0 ft / 0 m 0 ft / 0 m PREC-APP CENTERLINE EDGE THRESHOLD ALSF-I REIL-OMNI
30 148 ft / 45 m 9,020 ft / 2,749 m 297.71° / 298.18° ASPHALT 0 ft / 0 m 0 ft / 0 m VISUAL CENTERLINE EDGE THRESHOLD REIL-OMNI
31 148 ft / 45 m 10,498 ft / 3,200 m 311.70° / 312.17° ASPHALT 0 ft / 0 m 0 ft / 0 m PREC-APP CENTERLINE EDGE THRESHOLD ALSF-I REIL-OMNI

LEAM

Details ICAO LEAM (LEI)
Name Almería-Antonio de Torres
Region Spain
Timezone Unknown
Stats Elevation 70 ft / 21 m (AMSL)
Location 36.844000° -2.370060°
Runways 1
Magnetic Variation 0.109° E

METAR

LEAM 240330Z 23006KT CAVOK 25/24 Q1008

Decode

TAF

TAF LEAM 232300Z 2400/2424 VRB01KT CAVOK TX29/2414Z TN20/2403Z TEMPO 2402/2408 3000 BR BKN010 BECMG 2410/2412 22014KT

Decode

Destination Runways

ID Width Length Bearing (true/mag) Surface Threshold Overrun Markings Lighting
07 148 ft / 45 m 10,462 ft / 3,189 m 72.93° / 72.82° ASPHALT 479 ft / 146 m 0 ft / 0 m PREC-APP CENTERLINE EDGE THRESHOLD MALS REIL-OMNI
25 148 ft / 45 m 10,462 ft / 3,189 m 252.95° / 252.84° ASPHALT 0 ft / 0 m 0 ft / 0 m PREC-APP CENTERLINE EDGE THRESHOLD CALVERT-ILS REIL-OMNI

Approach Navaids

Runway Type Ident Frequency Range Bearing (true/mag) Slope Elevation
25 DME IAM 109.90 MHz 18 nm / 33 km - - 95 ft / 29 m (AMSL)
25 GS IAM 109.90 MHz 10 nm / 19 km 252.95° / 252.84 ° 3.00° 69 ft / 21 m (AMSL)
25 LOC-ILS IAM 109.90 MHz 18 nm / 33 km 252.95° / 252.84 ° - 69 ft / 21 m (AMSL)
25 OM OM - - 252.95° / 252.84 ° - 70 ft / 21 m (AMSL)

Popular Alternatives